createdAt,value
2022-10-08T00:08:18.305Z,70.97
2022-10-08T00:11:20.952Z,71.38
2022-10-08T00:22:32.642Z,71.50
2022-10-08T00:25:00.846Z,71.50
2022-10-08T00:27:29.844Z,71.85
2022-10-08T00:29:58.075Z,71.82
2022-10-08T00:32:26.019Z,72.37
2022-10-08T00:34:54.003Z,72.00
2022-10-08T00:37:21.941Z,72.12
2022-10-08T00:39:51.585Z,72.27
2022-10-08T00:42:19.764Z,72.22
2022-10-08T00:44:53.626Z,72.25
2022-10-08T00:47:29.615Z,72.25
2022-10-08T00:50:00.271Z,72.02
2022-10-08T00:52:33.609Z,72.24
2022-10-08T00:55:07.663Z,71.74
2022-10-08T00:57:37.457Z,71.73
2022-10-08T01:00:08.646Z,72.18
2022-10-08T01:02:36.737Z,72.00
2022-10-08T01:05:06.359Z,72.32
2022-10-08T01:07:41.310Z,72.49
2022-10-08T01:10:20.058Z,72.08
2022-10-08T01:13:00.766Z,72.58
2022-10-08T01:15:35.844Z,72.16
2022-10-08T01:18:11.440Z,72.28
2022-10-08T01:20:45.442Z,72.19
2022-10-08T01:23:30.396Z,72.45
2022-10-08T01:26:09.320Z,72.33
2022-10-08T01:28:43.873Z,72.34
2022-10-08T01:31:19.105Z,72.35
2022-10-08T01:33:52.417Z,72.43
2022-10-08T01:36:22.441Z,72.26
2022-10-08T01:39:06.262Z,72.09
2022-10-08T01:41:34.994Z,72.58
2022-10-08T01:44:10.038Z,72.34
2022-10-08T01:46:44.310Z,72.16
2022-10-08T01:49:18.474Z,72.23
2022-10-08T01:51:50.979Z,72.08
2022-10-08T01:54:19.651Z,72.08
2022-10-08T01:56:49.431Z,71.89
2022-10-08T01:59:22.878Z,72.46
2022-10-08T02:01:56.103Z,72.53
2022-10-08T02:04:35.141Z,72.56
2022-10-08T02:07:07.450Z,72.17
2022-10-08T02:09:38.456Z,72.34
2022-10-08T02:12:06.853Z,72.02
2022-10-08T02:14:38.984Z,72.23
2022-10-08T02:17:16.628Z,72.24
2022-10-08T02:19:52.687Z,72.11
2022-10-08T02:22:25.649Z,72.15
2022-10-08T02:24:57.869Z,72.29
2022-10-08T02:27:30.607Z,71.96
2022-10-08T02:30:08.015Z,71.84
2022-10-08T02:32:40.857Z,72.25
2022-10-08T02:35:17.337Z,71.97
2022-10-08T02:37:52.102Z,72.12
2022-10-08T02:40:22.074Z,72.18
2022-10-08T02:42:55.105Z,72.18
2022-10-08T02:45:28.053Z,72.63
2022-10-08T02:48:02.577Z,72.23
2022-10-08T02:50:32.888Z,72.18
2022-10-08T02:53:02.013Z,72.44
2022-10-08T02:55:39.404Z,72.81
2022-10-08T02:58:11.281Z,72.47
2022-10-08T03:00:45.277Z,72.27
2022-10-08T03:03:15.590Z,72.75
2022-10-08T03:05:44.924Z,72.34
2022-10-08T03:08:15.805Z,72.62
2022-10-08T03:10:45.413Z,72.33
2022-10-08T03:13:13.935Z,72.70
2022-10-08T03:15:44.629Z,72.49
2022-10-08T03:18:13.739Z,72.63
2022-10-08T03:20:46.432Z,72.59
2022-10-08T03:23:17.772Z,72.45
2022-10-08T03:25:45.979Z,72.88
2022-10-08T03:28:13.964Z,72.77
2022-10-08T03:30:43.234Z,72.34
2022-10-08T03:33:11.205Z,72.88
2022-10-08T03:35:45.461Z,72.81
2022-10-08T03:38:15.351Z,72.73
2022-10-08T03:40:43.235Z,72.59
2022-10-08T03:43:11.160Z,72.41
2022-10-08T03:45:39.003Z,72.27
2022-10-08T03:48:08.207Z,72.88
2022-10-08T03:50:36.017Z,72.71
2022-10-08T03:53:03.848Z,72.62
2022-10-08T03:55:31.846Z,72.79
2022-10-08T03:57:59.692Z,72.37
2022-10-08T04:00:27.617Z,72.67
2022-10-08T04:02:55.483Z,72.61
2022-10-08T04:05:25.188Z,72.55
2022-10-08T04:07:53.654Z,72.46
2022-10-08T04:10:21.490Z,72.04
2022-10-08T04:12:49.722Z,71.96
2022-10-08T04:15:18.397Z,72.08
2022-10-08T04:17:46.482Z,71.69
2022-10-08T04:20:14.411Z,72.14
2022-10-08T04:22:43.922Z,71.55
2022-10-08T04:25:11.922Z,71.48
2022-10-08T04:27:39.826Z,71.94
2022-10-08T04:30:08.881Z,71.72
2022-10-08T04:32:36.893Z,71.42
2022-10-08T04:35:05.275Z,71.32
2022-10-08T04:37:33.113Z,71.43
2022-10-08T04:40:02.382Z,71.20
2022-10-08T04:42:30.280Z,70.94
2022-10-08T04:44:58.055Z,71.36
2022-10-08T04:47:25.869Z,71.29
2022-10-08T04:49:53.731Z,71.33
2022-10-08T04:52:21.539Z,71.21
2022-10-08T04:54:50.193Z,71.21
2022-10-08T04:57:19.489Z,71.29
2022-10-08T05:00:13.204Z,71.13
2022-10-08T05:02:36.371Z,71.10
2022-10-08T05:05:04.768Z,71.37
2022-10-08T05:07:32.665Z,71.33
2022-10-08T05:10:00.979Z,71.62
2022-10-08T05:12:30.307Z,71.27
2022-10-08T05:14:59.003Z,71.32
2022-10-08T05:17:26.978Z,71.46
2022-10-08T05:19:54.970Z,71.19
2022-10-08T05:22:22.918Z,71.18
2022-10-08T05:24:51.106Z,71.29
2022-10-08T05:27:19.976Z,71.58
2022-10-08T05:29:49.670Z,71.22
2022-10-08T05:32:18.442Z,71.80
2022-10-08T05:34:46.687Z,71.76
2022-10-08T05:37:14.822Z,72.33
2022-10-08T05:39:43.000Z,72.34
2022-10-08T05:42:11.013Z,72.47
2022-10-08T05:44:40.590Z,72.23
2022-10-08T05:47:12.290Z,71.80
2022-10-08T05:49:40.317Z,72.11
2022-10-08T05:52:08.616Z,72.40
2022-10-08T05:54:36.891Z,72.19
2022-10-08T05:57:05.161Z,72.04
2022-10-08T06:04:26.216Z,72.59
2022-10-08T06:06:54.522Z,72.60
2022-10-08T06:09:23.306Z,72.39
2022-10-08T06:11:51.915Z,72.65
2022-10-08T06:14:20.525Z,72.82
2022-10-08T06:16:49.626Z,73.06
2022-10-08T06:19:17.643Z,72.71
2022-10-08T06:21:47.021Z,72.82
2022-10-08T06:24:15.714Z,72.94
2022-10-08T06:26:45.018Z,72.93
2022-10-08T06:29:15.757Z,72.63
2022-10-08T06:31:44.173Z,72.69
2022-10-08T06:34:18.543Z,72.34
2022-10-08T06:36:48.113Z,72.52
2022-10-08T06:39:17.945Z,72.16
2022-10-08T06:41:46.117Z,71.89
2022-10-08T06:44:15.971Z,72.04
2022-10-08T06:46:44.264Z,71.96
2022-10-08T06:49:13.205Z,71.64
2022-10-08T06:51:41.963Z,71.95
2022-10-08T06:54:11.248Z,71.78
2022-10-08T06:56:39.571Z,71.56
2022-10-08T06:59:08.109Z,71.40
2022-10-08T07:01:36.525Z,71.39
2022-10-08T07:04:06.757Z,71.21
2022-10-08T07:06:34.879Z,70.80
2022-10-08T07:09:03.526Z,70.54
2022-10-08T07:11:33.483Z,70.42
2022-10-08T07:14:01.605Z,70.42
2022-10-08T07:16:30.173Z,70.49
2022-10-08T07:18:59.345Z,70.04
2022-10-08T07:21:29.658Z,69.62
2022-10-08T07:24:00.011Z,69.72
2022-10-08T07:26:30.087Z,69.86
2022-10-08T07:29:05.257Z,69.36
2022-10-08T07:31:35.321Z,68.44
2022-10-08T07:34:06.139Z,67.90
2022-10-08T07:36:34.529Z,68.24
2022-10-08T07:39:05.099Z,68.48
2022-10-08T07:41:41.013Z,68.48
2022-10-08T07:44:19.189Z,68.74
2022-10-08T07:53:02.459Z,65.29
2022-10-08T07:55:32.141Z,63.79
2022-10-08T07:58:00.489Z,63.30
2022-10-08T08:00:29.800Z,63.55
2022-10-08T08:02:57.640Z,63.61
2022-10-08T08:05:25.670Z,64.55
2022-10-08T08:07:53.622Z,65.38
2022-10-08T08:10:21.521Z,65.82
2022-10-08T08:12:49.880Z,66.02
2022-10-08T08:15:18.027Z,66.58
2022-10-08T08:17:47.202Z,66.37
2022-10-08T08:20:15.242Z,65.93
2022-10-08T08:22:43.016Z,65.91
2022-10-08T08:25:10.954Z,66.27
2022-10-08T08:27:39.031Z,66.08
2022-10-08T08:30:08.019Z,66.30
2022-10-08T08:32:36.423Z,65.72
2022-10-08T08:35:06.539Z,65.54
2022-10-08T08:37:34.339Z,65.55
2022-10-08T08:40:02.252Z,64.20
2022-10-08T08:42:45.030Z,61.53
2022-10-08T08:45:45.470Z,55.69
2022-10-08T08:48:25.103Z,53.05
2022-10-08T08:50:59.712Z,54.40
2022-10-08T08:53:28.622Z,54.22
2022-10-08T08:55:59.807Z,55.77
2022-10-08T08:58:37.564Z,54.27
2022-10-08T09:01:14.060Z,51.30
2022-10-08T09:03:45.320Z,49.12
2022-10-08T09:06:17.942Z,45.85
2022-10-08T09:08:51.810Z,41.23
2022-10-08T09:11:22.326Z,37.83
2022-10-08T09:13:57.538Z,34.53
2022-10-08T09:16:28.577Z,32.31
2022-10-08T09:18:56.840Z,33.42
2022-10-08T09:21:30.032Z,34.66
2022-10-08T09:23:57.965Z,36.86
2022-10-08T09:26:31.325Z,38.87
2022-10-08T09:29:00.844Z,39.46
2022-10-08T09:31:33.358Z,41.75
2022-10-08T09:34:16.504Z,42.47
2022-10-08T09:36:48.878Z,43.20
2022-10-08T09:39:19.409Z,45.72
2022-10-08T09:41:48.963Z,44.90
2022-10-08T09:44:20.328Z,40.47
2022-10-08T09:46:49.735Z,34.21
2022-10-08T09:49:32.725Z,31.46
2022-10-08T09:52:06.194Z,31.17
2022-10-08T09:54:37.539Z,32.80
2022-10-08T09:57:07.235Z,32.68
2022-10-08T09:59:41.919Z,30.55
2022-10-08T10:02:28.748Z,29.81
2022-10-08T10:04:57.999Z,27.78
2022-10-08T10:11:22.991Z,22.30
2022-10-08T10:13:51.733Z,20.44
2022-10-08T10:16:25.907Z,20.45
2022-10-08T10:18:59.582Z,23.30
2022-10-08T10:21:35.806Z,27.16
2022-10-08T10:24:20.819Z,25.64
2022-10-08T10:26:52.160Z,22.87
2022-10-08T10:29:22.588Z,24.22
2022-10-08T10:31:54.401Z,27.06
2022-10-08T10:34:26.062Z,30.24
2022-10-08T10:36:57.284Z,32.42
2022-10-08T10:39:34.999Z,34.29
2022-10-08T10:42:13.420Z,35.48
2022-10-08T10:44:53.013Z,31.12
2022-10-08T10:47:27.089Z,25.93
2022-10-08T10:49:58.869Z,21.32
2022-10-08T10:52:45.597Z,21.61
2022-10-08T10:55:27.194Z,21.29
2022-10-08T10:58:14.820Z,18.70
2022-10-08T11:00:52.910Z,16.77
2022-10-08T11:03:29.337Z,15.39
2022-10-08T11:06:06.904Z,14.49
2022-10-08T11:08:40.311Z,15.12
2022-10-08T11:11:22.357Z,15.13
2022-10-08T11:14:03.453Z,15.64
2022-10-08T11:16:42.866Z,16.78
2022-10-08T11:19:27.261Z,17.66
2022-10-08T11:22:03.157Z,16.25
2022-10-08T11:24:42.940Z,14.28
2022-10-08T11:27:19.720Z,13.86
2022-10-08T11:29:54.626Z,13.17
2022-10-08T11:32:23.219Z,13.03
2022-10-08T11:34:56.630Z,13.39
2022-10-08T11:37:31.409Z,14.36
2022-10-08T11:40:08.554Z,14.96
2022-10-08T11:42:48.103Z,16.48
2022-10-08T11:45:35.045Z,19.03
2022-10-08T11:48:34.940Z,21.81
2022-10-08T11:51:39.116Z,24.18
2022-10-08T11:54:14.461Z,26.55
2022-10-08T11:56:45.921Z,30.08
2022-10-08T11:59:34.372Z,30.25
2022-10-08T12:02:04.177Z,32.74
2022-10-08T12:04:36.390Z,29.62
2022-10-08T12:07:09.109Z,25.52
2022-10-08T12:10:04.548Z,25.38
2022-10-08T12:13:01.929Z,28.05
2022-10-08T12:15:56.830Z,26.14
2022-10-08T12:18:48.222Z,24.78
2022-10-08T12:21:47.245Z,23.44
2022-10-08T12:24:54.475Z,23.51
2022-10-08T12:27:34.392Z,24.05
2022-10-08T12:30:04.959Z,24.15
2022-10-08T12:32:52.351Z,23.98
2022-10-08T12:35:27.181Z,25.65
2022-10-08T12:38:09.982Z,27.65
2022-10-08T12:40:42.761Z,28.61
2022-10-08T12:43:22.218Z,29.86
2022-10-08T12:45:59.313Z,29.85
2022-10-08T12:48:41.632Z,32.17
2022-10-08T12:51:26.613Z,32.57
2022-10-08T12:53:57.803Z,33.19
2022-10-08T12:56:31.793Z,34.05
2022-10-08T12:59:04.881Z,32.53
2022-10-08T13:01:34.157Z,33.91
2022-10-08T13:04:10.672Z,34.75
2022-10-08T13:06:38.426Z,35.76
2022-10-08T13:09:27.245Z,36.51
2022-10-08T13:12:01.998Z,37.00
2022-10-08T13:14:32.882Z,36.91
2022-10-08T13:17:01.385Z,38.31
2022-10-08T13:19:31.998Z,38.77
2022-10-08T13:22:01.519Z,38.88
2022-10-08T13:24:41.699Z,39.10
2022-10-08T13:27:24.071Z,40.00
2022-10-08T13:29:51.922Z,40.63
2022-10-08T13:32:22.875Z,41.75
2022-10-08T13:34:53.206Z,40.96
2022-10-08T13:37:30.655Z,41.26
2022-10-08T13:40:01.403Z,40.82
2022-10-08T13:42:32.064Z,41.24
2022-10-08T13:45:01.256Z,41.64
2022-10-08T13:47:29.509Z,41.82
2022-10-08T13:50:01.647Z,41.69
2022-10-08T13:52:31.685Z,42.72
2022-10-08T13:55:03.383Z,42.52
2022-10-08T13:57:31.716Z,42.14
2022-10-08T13:59:59.403Z,40.87
2022-10-08T14:02:27.162Z,40.09
2022-10-08T14:04:54.999Z,40.28
2022-10-08T14:07:27.123Z,39.56
2022-10-08T14:09:56.847Z,39.84
2022-10-08T14:12:28.800Z,38.29
2022-10-08T14:14:57.433Z,38.20
2022-10-08T14:17:25.400Z,39.29
2022-10-08T14:19:54.186Z,39.08
2022-10-08T14:22:22.130Z,40.21
2022-10-08T14:24:49.831Z,39.55
2022-10-08T14:27:17.537Z,39.02
2022-10-08T14:29:46.732Z,38.81
2022-10-08T14:32:14.442Z,39.32
2022-10-08T14:34:42.238Z,39.88
2022-10-08T14:37:11.295Z,39.75
2022-10-08T14:39:38.996Z,40.69
2022-10-08T14:42:06.815Z,41.71
2022-10-08T14:44:34.500Z,42.17
2022-10-08T14:47:03.526Z,41.39
2022-10-08T14:49:31.211Z,42.04
2022-10-08T14:51:58.854Z,42.56
2022-10-08T14:54:27.935Z,42.24
2022-10-08T14:56:55.699Z,43.02
2022-10-08T14:59:23.383Z,41.91
2022-10-08T15:01:51.139Z,42.89
2022-10-08T15:04:22.179Z,42.81
2022-10-08T15:06:49.925Z,43.22
2022-10-08T15:09:17.746Z,42.88
2022-10-08T15:11:45.791Z,43.33
2022-10-08T15:14:14.305Z,43.05
2022-10-08T15:16:43.489Z,42.98
2022-10-08T15:19:12.481Z,43.66
2022-10-08T15:21:42.559Z,43.99
2022-10-08T15:24:10.579Z,43.88
2022-10-08T15:26:38.375Z,43.52
2022-10-08T15:29:06.144Z,43.47
2022-10-08T15:31:33.942Z,43.20
2022-10-08T15:34:01.921Z,43.25
2022-10-08T15:36:31.404Z,43.35
2022-10-08T15:39:02.096Z,42.92
2022-10-08T15:41:31.944Z,42.67
2022-10-08T15:44:10.867Z,42.96
2022-10-08T15:46:38.639Z,44.07
2022-10-08T15:49:06.833Z,44.14
2022-10-08T15:51:34.602Z,44.10
2022-10-08T15:54:04.599Z,46.30
2022-10-08T15:56:32.905Z,45.45
2022-10-08T15:59:01.943Z,46.57
2022-10-08T16:01:31.010Z,47.29
2022-10-08T16:03:59.970Z,47.83
2022-10-08T16:06:29.516Z,45.67
2022-10-08T16:08:58.657Z,45.70
2022-10-08T16:11:30.110Z,46.21
2022-10-08T16:14:01.301Z,46.92
2022-10-08T16:16:29.203Z,48.28
2022-10-08T16:18:59.443Z,50.04
2022-10-08T16:21:28.398Z,51.01
2022-10-08T16:23:57.238Z,51.29
2022-10-08T16:26:28.859Z,51.78
2022-10-08T16:28:59.356Z,52.10
2022-10-08T16:31:29.103Z,53.01
2022-10-08T16:33:58.469Z,53.38
2022-10-08T16:36:27.751Z,53.64
2022-10-08T16:38:56.056Z,54.07
2022-10-08T16:41:25.899Z,54.32
2022-10-08T16:43:58.222Z,54.85
2022-10-08T16:46:28.701Z,55.04
2022-10-08T16:48:59.072Z,55.40
2022-10-08T16:51:29.131Z,55.85
2022-10-08T16:53:58.250Z,56.23
2022-10-08T16:56:27.932Z,56.64
2022-10-08T16:58:59.272Z,56.80
2022-10-08T17:01:27.589Z,57.31
2022-10-08T17:03:55.870Z,57.63
2022-10-08T17:06:25.008Z,57.97
2022-10-08T17:08:53.131Z,58.03
2022-10-08T17:11:21.566Z,58.35
2022-10-08T17:13:53.749Z,59.01
2022-10-08T17:16:24.407Z,58.96
2022-10-08T17:18:53.202Z,59.27
2022-10-08T17:21:21.385Z,59.55
2022-10-08T17:23:49.562Z,59.92
2022-10-08T17:26:20.889Z,60.05
2022-10-08T17:28:50.526Z,60.32
2022-10-08T17:31:20.170Z,60.70
2022-10-08T17:33:49.461Z,60.67
2022-10-08T17:36:19.201Z,61.04
2022-10-08T17:38:49.272Z,61.30
2022-10-08T17:41:18.908Z,61.30
2022-10-08T17:43:48.101Z,61.55
2022-10-08T17:46:18.241Z,62.08
2022-10-08T17:48:47.322Z,61.89
2022-10-08T17:51:18.889Z,62.34
2022-10-08T17:53:52.833Z,62.21
2022-10-08T17:56:21.289Z,62.46
2022-10-08T17:58:49.422Z,62.72
2022-10-08T18:01:19.063Z,62.65
2022-10-08T18:03:51.712Z,62.64
2022-10-08T18:06:21.128Z,62.78
2022-10-08T18:08:49.346Z,62.80
2022-10-08T18:11:17.622Z,63.09
2022-10-08T18:13:45.732Z,63.10
2022-10-08T18:16:15.311Z,63.42
2022-10-08T18:18:44.340Z,63.15
2022-10-08T18:21:13.385Z,63.49
2022-10-08T18:23:43.117Z,63.67
2022-10-08T18:26:16.689Z,63.78
2022-10-08T18:28:44.792Z,63.73
2022-10-08T18:31:15.565Z,64.14
2022-10-08T18:33:45.114Z,63.99
2022-10-08T18:36:15.318Z,64.11
2022-10-08T18:38:46.413Z,64.24
2022-10-08T18:41:15.506Z,64.42
2022-10-08T18:43:44.160Z,64.50
2022-10-08T18:46:12.707Z,64.51
2022-10-08T18:48:41.012Z,64.62
2022-10-08T18:51:11.270Z,64.90
2022-10-08T18:53:40.862Z,64.88
2022-10-08T18:56:12.579Z,64.87
2022-10-08T18:58:41.082Z,64.92
2022-10-08T19:01:17.799Z,65.10
2022-10-08T19:03:47.148Z,65.45
2022-10-08T19:06:17.700Z,65.50
2022-10-08T19:08:45.600Z,65.93
2022-10-08T19:11:17.145Z,65.80
2022-10-08T19:13:45.807Z,65.76
2022-10-08T19:16:15.232Z,66.17
2022-10-08T19:18:44.140Z,65.98
2022-10-08T19:21:14.100Z,66.21
2022-10-08T19:23:42.050Z,66.39
2022-10-08T19:26:10.325Z,66.35
2022-10-08T19:28:41.015Z,66.68
2022-10-08T19:31:13.639Z,66.63
2022-10-08T19:33:41.641Z,66.92
2022-10-08T19:36:10.094Z,66.37
2022-10-08T19:38:37.923Z,66.54
2022-10-08T19:41:10.122Z,67.00
2022-10-08T19:43:39.365Z,67.10
2022-10-08T19:46:08.237Z,67.08
2022-10-08T19:48:41.616Z,67.22
2022-10-08T19:51:11.580Z,67.29
2022-10-08T19:53:40.497Z,66.97
2022-10-08T19:56:10.117Z,67.33
2022-10-08T19:58:43.935Z,67.21
2022-10-08T20:01:16.300Z,67.57
2022-10-08T20:03:44.484Z,67.52
2022-10-08T20:06:16.154Z,67.57
2022-10-08T20:08:46.554Z,67.32
2022-10-08T20:11:16.809Z,67.74
2022-10-08T20:13:47.825Z,67.72
2022-10-08T20:16:18.015Z,67.92
2022-10-08T20:18:50.734Z,67.93
2022-10-08T20:21:19.005Z,67.81
2022-10-08T20:23:47.073Z,68.09
2022-10-08T20:26:16.745Z,68.06
2022-10-08T20:28:46.753Z,68.28
2022-10-08T20:31:16.682Z,68.40
2022-10-08T20:33:46.116Z,68.17
2022-10-08T20:36:16.022Z,68.57
2022-10-08T20:38:46.862Z,68.53
2022-10-08T20:41:14.653Z,68.34
2022-10-08T20:43:42.592Z,68.71
2022-10-08T20:46:14.492Z,68.79
2022-10-08T20:48:44.726Z,68.80
2022-10-08T20:51:14.647Z,68.92
2022-10-08T20:53:47.481Z,69.19
2022-10-08T20:56:15.831Z,69.13
2022-10-08T20:58:43.887Z,69.09
2022-10-08T21:01:15.006Z,69.28
2022-10-08T21:03:44.577Z,68.89
2022-10-08T21:06:13.996Z,68.94
2022-10-08T21:08:43.993Z,69.15
2022-10-08T21:11:16.667Z,68.84
2022-10-08T21:13:44.875Z,69.28
2022-10-08T21:16:16.575Z,69.10
2022-10-08T21:18:45.177Z,69.36
2022-10-08T21:21:15.155Z,69.34
2022-10-08T21:23:43.685Z,69.51
2022-10-08T21:26:14.662Z,69.78
2022-10-08T21:28:44.157Z,69.68
2022-10-08T21:31:14.720Z,69.29
2022-10-08T21:33:45.331Z,69.59
2022-10-08T21:36:15.587Z,69.68
2022-10-08T21:38:43.549Z,69.51
2022-10-08T21:41:14.009Z,69.60
2022-10-08T21:43:43.796Z,69.93
2022-10-08T21:46:13.363Z,69.62
2022-10-08T21:48:42.884Z,69.67
2022-10-08T21:51:12.894Z,69.95
2022-10-08T21:53:44.897Z,69.91
2022-10-08T21:56:14.964Z,69.95
2022-10-08T21:58:44.370Z,69.92
2022-10-08T22:01:22.389Z,69.84
2022-10-08T22:03:54.126Z,70.14
2022-10-08T22:06:22.412Z,69.36
2022-10-08T22:08:51.069Z,70.21
2022-10-08T22:11:18.943Z,69.83
2022-10-08T22:13:47.621Z,69.93
2022-10-08T22:16:17.332Z,70.24
2022-10-08T22:18:45.179Z,69.98
2022-10-08T22:21:16.246Z,69.90
2022-10-08T22:23:44.456Z,70.51
2022-10-08T22:26:14.506Z,70.43
2022-10-08T22:28:42.772Z,70.29
2022-10-08T22:31:12.450Z,70.29
2022-10-08T22:33:40.601Z,70.55
2022-10-08T22:36:11.851Z,70.43
2022-10-08T22:38:42.698Z,70.20
2022-10-08T22:41:12.641Z,70.60
2022-10-08T22:43:42.030Z,70.61
2022-10-08T22:46:12.253Z,69.96
2022-10-08T22:48:40.799Z,70.56
2022-10-08T22:51:12.297Z,70.27
2022-10-08T22:53:44.074Z,70.60
2022-10-08T22:56:14.318Z,70.18
2022-10-08T22:58:42.120Z,70.29
2022-10-08T23:01:11.617Z,70.64
2022-10-08T23:03:40.263Z,70.50
2022-10-08T23:06:09.706Z,70.69
2022-10-08T23:08:37.732Z,70.26
2022-10-08T23:11:07.848Z,70.63
2022-10-08T23:13:35.834Z,70.35
2022-10-08T23:16:06.009Z,70.55
2022-10-08T23:18:35.754Z,70.66
2022-10-08T23:21:05.100Z,70.81
2022-10-08T23:23:33.402Z,70.64
2022-10-08T23:26:03.680Z,70.54
2022-10-08T23:28:34.462Z,70.58
2022-10-08T23:31:07.676Z,70.66
2022-10-08T23:33:37.835Z,70.63
2022-10-08T23:36:07.186Z,70.75
2022-10-08T23:38:36.173Z,70.95
2022-10-08T23:41:05.956Z,70.67
2022-10-08T23:43:37.692Z,70.85
2022-10-08T23:46:06.532Z,71.00
2022-10-08T23:48:34.947Z,70.96
2022-10-08T23:51:03.366Z,70.95
2022-10-08T23:53:31.645Z,70.52
2022-10-08T23:55:59.688Z,70.34
2022-10-08T23:58:27.586Z,70.55
